createdAt,value
2022-09-03T00:00:25.542Z,99824.75
2022-09-03T00:01:20.573Z,99818.97
2022-09-03T00:02:19.494Z,99816.44
2022-09-03T00:03:32.181Z,99813.75
2022-09-03T00:04:54.391Z,99810.16
2022-09-03T00:05:45.932Z,99814.75
2022-09-03T00:06:40.512Z,99816.91
2022-09-03T00:08:06.113Z,99807.28
2022-09-03T00:09:15.061Z,99814.53
2022-09-03T00:10:09.201Z,99817.81
2022-09-03T00:11:13.731Z,99817.00
2022-09-03T00:12:20.012Z,99822.41
2022-09-03T00:13:08.262Z,99816.59
2022-09-03T00:14:04.162Z,99817.63
2022-09-03T00:14:55.931Z,99825.34
2022-09-03T00:15:42.869Z,99820.91
2022-09-03T00:16:39.811Z,99821.31
2022-09-03T00:17:31.404Z,99820.84
2022-09-03T00:18:22.159Z,99820.00
2022-09-03T00:19:09.241Z,99818.78
2022-09-03T00:20:02.007Z,99820.47
2022-09-03T00:20:57.739Z,99826.31
2022-09-03T00:21:47.892Z,99825.47
2022-09-03T00:22:48.201Z,99824.25
2022-09-03T00:23:41.021Z,99820.91
2022-09-03T00:24:31.251Z,99819.25
2022-09-03T00:25:25.163Z,99822.97
2022-09-03T00:26:13.451Z,99815.94
2022-09-03T00:27:03.961Z,99813.25
2022-09-03T00:27:52.142Z,99829.66
2022-09-03T00:28:44.731Z,99821.16
2022-09-03T00:29:37.111Z,99823.88
2022-09-03T00:30:24.651Z,99819.09
2022-09-03T00:31:27.580Z,99819.69
2022-09-03T00:32:23.433Z,99830.88
2022-09-03T00:33:22.492Z,99825.87
2022-09-03T00:34:31.671Z,99831.03
2022-09-03T00:35:32.951Z,99836.25
2022-09-03T00:36:24.041Z,99831.22
2022-09-03T00:37:14.299Z,99838.88
2022-09-03T00:38:02.621Z,99836.00
2022-09-03T00:38:49.411Z,99840.66
2022-09-03T00:39:38.114Z,99836.25
2022-09-03T00:40:58.912Z,99841.06
2022-09-03T00:42:06.932Z,99837.00
2022-09-03T00:43:12.462Z,99837.00
2022-09-03T00:44:14.323Z,99842.25
2022-09-03T00:45:08.741Z,99844.25
2022-09-03T00:46:07.642Z,99845.47
2022-09-03T00:47:18.392Z,99840.37
2022-09-03T00:48:28.236Z,99844.94
2022-09-03T00:49:34.131Z,99844.44
2022-09-03T00:50:33.312Z,99839.97
2022-09-03T00:51:29.502Z,99840.75
2022-09-03T00:52:33.012Z,99839.13
2022-09-03T00:53:24.212Z,99838.31
2022-09-03T00:54:16.761Z,99838.69
2022-09-03T00:55:23.113Z,99837.47
2022-09-03T00:56:26.122Z,99839.34
2022-09-03T00:57:47.331Z,99839.06
2022-09-03T00:58:49.615Z,99836.00
2022-09-03T00:59:45.201Z,99847.06
2022-09-03T01:00:31.912Z,99838.75
2022-09-03T01:01:45.001Z,99836.66
2022-09-03T01:02:59.201Z,99841.53
2022-09-03T01:04:07.871Z,99834.50
2022-09-03T01:05:09.461Z,99835.34
2022-09-03T01:06:21.939Z,99832.75
2022-09-03T01:07:35.982Z,99834.34
2022-09-03T01:09:12.416Z,99829.69
2022-09-03T01:10:06.279Z,99835.22
2022-09-03T01:11:20.160Z,99841.50
2022-09-03T01:12:33.153Z,99846.69
2022-09-03T01:13:28.073Z,99840.69
2022-09-03T01:14:30.047Z,99838.22
2022-09-03T01:15:33.042Z,99840.69
2022-09-03T01:16:41.492Z,99846.09
2022-09-03T01:17:41.751Z,99836.16
2022-09-03T01:18:34.583Z,99845.50
2022-09-03T01:19:48.071Z,99848.37
2022-09-03T01:21:04.591Z,99841.91
2022-09-03T01:22:21.139Z,99840.16
2022-09-03T01:23:07.840Z,99837.91
2022-09-03T01:24:18.352Z,99844.84
2022-09-03T01:25:32.310Z,99842.13
2022-09-03T01:26:46.932Z,99842.66
2022-09-03T01:27:47.911Z,99847.06
2022-09-03T01:28:46.989Z,99842.84
2022-09-03T01:29:52.092Z,99842.66
2022-09-03T01:30:41.452Z,99838.09
2022-09-03T01:31:49.282Z,99844.62
2022-09-03T01:33:08.183Z,99829.81
2022-09-03T01:34:31.981Z,99834.56
2022-09-03T01:35:28.310Z,99834.37
2022-09-03T01:36:21.883Z,99832.25
2022-09-03T01:37:47.230Z,99833.66
2022-09-03T01:38:56.682Z,99827.25
2022-09-03T01:39:56.195Z,99833.91
2022-09-03T01:41:42.401Z,99833.72
2022-09-03T01:43:07.631Z,99836.62
2022-09-03T01:44:33.817Z,99834.31
2022-09-03T01:45:39.390Z,99830.59
2022-09-03T01:46:42.012Z,99839.25
2022-09-03T01:48:06.502Z,99836.53
2022-09-03T01:49:23.751Z,99837.75
2022-09-03T01:50:20.522Z,99837.94
2022-09-03T01:51:22.431Z,99833.50
2022-09-03T01:52:42.693Z,99837.69
2022-09-03T01:53:44.731Z,99836.66
2022-09-03T01:54:41.311Z,99840.19
2022-09-03T01:55:36.971Z,99829.66
2022-09-03T01:56:48.882Z,99849.78
2022-09-03T01:57:56.850Z,99845.59
2022-09-03T01:59:03.920Z,99843.66
2022-09-03T01:59:59.098Z,99844.22
2022-09-03T02:00:51.201Z,99844.38
2022-09-03T02:01:45.320Z,99847.56
2022-09-03T02:02:32.858Z,99843.00
2022-09-03T02:03:19.562Z,99841.31
2022-09-03T02:04:19.393Z,99841.03
2022-09-03T02:05:09.552Z,99840.78
2022-09-03T02:05:56.332Z,99852.41
2022-09-03T02:06:44.812Z,99842.44
2022-09-03T02:07:34.061Z,99849.06
2022-09-03T02:08:20.962Z,99837.97
2022-09-03T02:09:07.611Z,99849.63
2022-09-03T02:09:54.492Z,99844.56
2022-09-03T02:10:41.241Z,99853.72
2022-09-03T02:11:29.042Z,99842.53
2022-09-03T02:12:16.970Z,99842.53
2022-09-03T02:13:17.523Z,99839.25
2022-09-03T02:14:05.451Z,99841.59
2022-09-03T02:14:52.191Z,99842.44
2022-09-03T02:15:42.252Z,99843.16
2022-09-03T02:16:32.071Z,99841.78
2022-09-03T02:17:19.342Z,99839.06
2022-09-03T02:18:11.402Z,99845.22
2022-09-03T02:19:02.332Z,99845.22
2022-09-03T02:19:49.082Z,99843.56
2022-09-03T02:20:35.831Z,99851.84
2022-09-03T02:21:24.823Z,99848.47
2022-09-03T02:22:12.842Z,99849.53
2022-09-03T02:22:59.752Z,99851.19
2022-09-03T02:23:47.129Z,99848.31
2022-09-03T02:24:34.021Z,99852.56
2022-09-03T02:25:22.613Z,99850.06
2022-09-03T02:26:10.550Z,99851.75
2022-09-03T02:26:57.402Z,99853.97
2022-09-03T02:27:44.933Z,99845.12
2022-09-03T02:28:32.587Z,99845.31
2022-09-03T02:29:19.931Z,99855.44
2022-09-03T02:30:07.991Z,99848.13
2022-09-03T02:30:55.258Z,99845.12
2022-09-03T02:31:42.013Z,99847.47
2022-09-03T02:32:29.012Z,99848.94
2022-09-03T02:33:16.110Z,99852.47
2022-09-03T02:34:03.112Z,99856.87
2022-09-03T02:34:50.160Z,99858.72
2022-09-03T02:35:36.911Z,99853.78
2022-09-03T02:36:30.922Z,99847.81
2022-09-03T02:37:20.756Z,99845.97
2022-09-03T02:38:12.081Z,99850.53
2022-09-03T02:38:58.932Z,99856.31
2022-09-03T02:39:45.914Z,99852.00
2022-09-03T02:40:32.663Z,99853.22
2022-09-03T02:41:19.471Z,99852.22
2022-09-03T02:42:06.441Z,99855.91
2022-09-03T02:42:53.171Z,99853.78
2022-09-03T02:43:43.381Z,99852.72
2022-09-03T02:44:31.984Z,99851.06
2022-09-03T02:45:28.371Z,99852.09
2022-09-03T02:46:21.734Z,99850.69
2022-09-03T02:47:08.902Z,99856.28
2022-09-03T02:47:59.181Z,99849.84
2022-09-03T02:48:45.984Z,99855.34
2022-09-03T02:49:33.360Z,99853.50
2022-09-03T02:50:20.033Z,99848.13
2022-09-03T02:51:13.671Z,99855.34
2022-09-03T02:52:07.000Z,99852.56
2022-09-03T02:52:53.852Z,99853.59
2022-09-03T02:53:40.851Z,99856.84
2022-09-03T02:54:28.602Z,99847.87
2022-09-03T02:55:15.732Z,99857.84
2022-09-03T02:56:02.970Z,99857.38
2022-09-03T02:56:49.990Z,99860.06
2022-09-03T02:57:36.771Z,99857.59
2022-09-03T02:58:23.552Z,99856.37
2022-09-03T02:59:10.356Z,99862.03
2022-09-03T02:59:57.102Z,99856.84
2022-09-03T03:00:44.222Z,99852.28
2022-09-03T03:01:31.005Z,99853.78
2022-09-03T03:02:19.321Z,99859.00
2022-09-03T03:03:06.892Z,99853.59
2022-09-03T03:03:53.914Z,99859.16
2022-09-03T03:04:40.841Z,99857.03
2022-09-03T03:05:46.753Z,99863.44
2022-09-03T03:06:33.521Z,99862.59
2022-09-03T03:07:20.251Z,99850.59
2022-09-03T03:08:09.127Z,99857.69
2022-09-03T03:08:57.930Z,99856.72
2022-09-03T03:09:45.141Z,99859.41
2022-09-03T03:10:31.810Z,99857.09
2022-09-03T03:11:19.630Z,99858.13
2022-09-03T03:12:07.372Z,99851.03
2022-09-03T03:12:54.821Z,99857.38
2022-09-03T03:13:41.501Z,99853.84
2022-09-03T03:14:28.221Z,99857.94
2022-09-03T03:15:15.861Z,99851.97
2022-09-03T03:16:06.460Z,99851.31
2022-09-03T03:16:53.170Z,99854.22
2022-09-03T03:17:39.961Z,99858.59
2022-09-03T03:18:26.631Z,99846.31
2022-09-03T03:19:13.341Z,99852.34
2022-09-03T03:20:00.136Z,99854.22
2022-09-03T03:20:48.443Z,99862.00
2022-09-03T03:21:35.111Z,99847.34
2022-09-03T03:22:21.791Z,99856.63
2022-09-03T03:23:09.030Z,99854.13
2022-09-03T03:23:55.771Z,99855.97
2022-09-03T03:24:42.502Z,99857.75
2022-09-03T03:25:29.211Z,99863.63
2022-09-03T03:26:21.212Z,99860.06
2022-09-03T03:27:10.891Z,99861.78
2022-09-03T03:27:57.574Z,99860.72
2022-09-03T03:28:45.080Z,99861.13
2022-09-03T03:29:32.191Z,99860.06
2022-09-03T03:30:21.102Z,99865.47
2022-09-03T03:31:14.820Z,99862.78
2022-09-03T03:32:01.851Z,99862.59
2022-09-03T03:32:48.611Z,99870.03
2022-09-03T03:33:35.591Z,99871.06
2022-09-03T03:34:22.380Z,99872.09
2022-09-03T03:35:09.431Z,99869.75
2022-09-03T03:35:56.200Z,99873.78
2022-09-03T03:36:42.960Z,99869.75
2022-09-03T03:37:30.451Z,99874.03
2022-09-03T03:38:17.161Z,99872.81
2022-09-03T03:39:04.051Z,99876.00
2022-09-03T03:39:51.022Z,99871.25
2022-09-03T03:40:39.071Z,99872.25
2022-09-03T03:41:33.833Z,99872.63
2022-09-03T03:42:20.541Z,99876.72
2022-09-03T03:43:07.295Z,99872.41
2022-09-03T03:43:55.131Z,99880.13
2022-09-03T03:44:44.053Z,99880.50
2022-09-03T03:45:30.771Z,99882.56
2022-09-03T03:46:17.594Z,99878.16
2022-09-03T03:47:06.261Z,99878.81
2022-09-03T03:47:56.921Z,99881.34
2022-09-03T03:48:43.930Z,99882.00
2022-09-03T03:49:30.656Z,99878.47
2022-09-03T03:50:17.501Z,99876.34
2022-09-03T03:51:07.624Z,99880.03
2022-09-03T03:51:54.311Z,99880.50
2022-09-03T03:52:41.050Z,99880.13
2022-09-03T03:53:27.795Z,99879.84
2022-09-03T03:54:17.511Z,99869.72
2022-09-03T03:55:04.988Z,99875.12
2022-09-03T03:55:56.513Z,99871.09
2022-09-03T03:56:43.260Z,99869.06
2022-09-03T03:57:31.221Z,99870.56
2022-09-03T03:58:18.311Z,99866.00
2022-09-03T03:59:05.260Z,99864.66
2022-09-03T03:59:51.990Z,99856.78
2022-09-03T04:00:39.593Z,99859.28
2022-09-03T04:01:27.347Z,99869.06
2022-09-03T04:02:14.952Z,99870.56
2022-09-03T04:03:01.789Z,99862.75
2022-09-03T04:03:48.650Z,99865.00
2022-09-03T04:04:35.481Z,99879.13
2022-09-03T04:05:23.276Z,99872.88
2022-09-03T04:06:12.870Z,99875.56
2022-09-03T04:06:59.640Z,99872.25
2022-09-03T04:07:46.430Z,99875.41
2022-09-03T04:08:37.712Z,99877.44
2022-09-03T04:09:24.621Z,99881.63
2022-09-03T04:10:11.321Z,99882.28
2022-09-03T04:11:02.339Z,99871.63
2022-09-03T04:11:50.611Z,99878.22
2022-09-03T04:12:37.491Z,99878.22
2022-09-03T04:13:24.181Z,99876.38
2022-09-03T04:14:10.910Z,99875.50
2022-09-03T04:14:57.672Z,99880.25
2022-09-03T04:15:44.722Z,99875.88
2022-09-03T04:16:33.078Z,99876.00
2022-09-03T04:17:23.278Z,99873.94
2022-09-03T04:18:12.190Z,99884.56
2022-09-03T04:18:59.301Z,99880.56
2022-09-03T04:19:48.253Z,99880.72
2022-09-03T04:20:38.640Z,99880.72
2022-09-03T04:21:28.486Z,99885.13
2022-09-03T04:22:15.990Z,99879.06
2022-09-03T04:23:04.820Z,99882.94
2022-09-03T04:23:51.990Z,99881.78
2022-09-03T04:24:39.190Z,99882.53
2022-09-03T04:25:25.992Z,99889.09
2022-09-03T04:26:15.259Z,99881.00
2022-09-03T04:27:01.990Z,99877.59
2022-09-03T04:27:48.660Z,99882.53
2022-09-03T04:28:35.653Z,99877.41
2022-09-03T04:29:22.340Z,99880.94
2022-09-03T04:30:09.630Z,99882.81
2022-09-03T04:31:01.493Z,99879.44
2022-09-03T04:32:17.960Z,99874.06
2022-09-03T04:33:04.631Z,99881.59
2022-09-03T04:33:51.602Z,99874.47
2022-09-03T04:34:38.291Z,99878.00
2022-09-03T04:35:29.301Z,99878.00
2022-09-03T04:36:18.311Z,99877.16
2022-09-03T04:37:05.111Z,99880.53
2022-09-03T04:37:53.711Z,99878.47
2022-09-03T04:38:42.143Z,99878.25
2022-09-03T04:39:28.877Z,99883.66
2022-09-03T04:40:16.071Z,99884.16
2022-09-03T04:41:02.900Z,99882.09
2022-09-03T04:41:49.562Z,99887.78
2022-09-03T04:42:36.290Z,99884.50
2022-09-03T04:43:23.021Z,99890.03
2022-09-03T04:44:09.907Z,99884.81
2022-09-03T04:44:56.700Z,99885.47
2022-09-03T04:45:43.430Z,99885.56
2022-09-03T04:46:33.985Z,99887.03
2022-09-03T04:47:21.080Z,99886.69
2022-09-03T04:48:10.570Z,99893.75
2022-09-03T04:48:58.240Z,99889.56
2022-09-03T04:49:45.140Z,99893.59
2022-09-03T04:50:33.312Z,99889.19
2022-09-03T04:51:26.450Z,99887.13
2022-09-03T04:52:13.131Z,99883.03
2022-09-03T04:53:07.979Z,99883.50
2022-09-03T04:53:57.351Z,99885.47
2022-09-03T04:54:44.153Z,99888.63
2022-09-03T04:55:37.831Z,99884.25
2022-09-03T04:56:27.241Z,99887.44
2022-09-03T04:57:13.950Z,99888.91
2022-09-03T04:58:00.702Z,99892.72
2022-09-03T04:58:49.208Z,99888.44
2022-09-03T04:59:37.913Z,99896.84
2022-09-03T05:00:24.671Z,99896.94
2022-09-03T05:01:13.845Z,99895.91
2022-09-03T05:02:00.690Z,99895.97
2022-09-03T05:02:48.771Z,99897.44
2022-09-03T05:03:37.590Z,99896.50
2022-09-03T05:04:24.270Z,99895.09
2022-09-03T05:05:10.980Z,99899.94
2022-09-03T05:05:57.770Z,99902.47
2022-09-03T05:06:45.510Z,99898.16
2022-09-03T05:07:38.717Z,99903.63
2022-09-03T05:08:26.621Z,99896.34
2022-09-03T05:09:13.600Z,99896.41
2022-09-03T05:10:00.671Z,99892.75
2022-09-03T05:10:47.992Z,99900.31
2022-09-03T05:11:35.294Z,99899.31
2022-09-03T05:12:22.840Z,99897.06
2022-09-03T05:13:09.520Z,99893.97
2022-09-03T05:13:58.060Z,99903.13
2022-09-03T05:14:44.829Z,99890.88
2022-09-03T05:15:33.255Z,99891.06
2022-09-03T05:16:20.817Z,99889.66
2022-09-03T05:17:07.570Z,99891.12
2022-09-03T05:18:03.060Z,99887.81
2022-09-03T05:18:54.206Z,99893.97
2022-09-03T05:19:40.952Z,99893.16
2022-09-03T05:20:30.108Z,99895.50
2022-09-03T05:21:18.811Z,99896.78
2022-09-03T05:22:05.510Z,99897.66
2022-09-03T05:22:52.951Z,99895.34
2022-09-03T05:23:42.711Z,99893.72
2022-09-03T05:24:29.441Z,99900.41
2022-09-03T05:25:16.171Z,99895.84
2022-09-03T05:26:05.110Z,99898.97
2022-09-03T05:26:55.672Z,99904.03
2022-09-03T05:27:43.212Z,99897.84
2022-09-03T05:28:31.231Z,99901.00
2022-09-03T05:29:20.104Z,99899.31
2022-09-03T05:30:07.403Z,99902.09
2022-09-03T05:31:04.042Z,99897.78
2022-09-03T05:31:50.766Z,99899.09
2022-09-03T05:32:37.698Z,99899.12
2022-09-03T05:33:25.031Z,99895.19
2022-09-03T05:34:16.582Z,99896.66
2022-09-03T05:35:05.821Z,99900.03
2022-09-03T05:35:53.800Z,99893.00
2022-09-03T05:36:40.490Z,99897.62
2022-09-03T05:37:27.512Z,99891.00
2022-09-03T05:38:14.530Z,99890.22
2022-09-03T05:39:01.680Z,99890.44
2022-09-03T05:39:48.475Z,99889.44
2022-09-03T05:40:36.540Z,99893.00
2022-09-03T05:41:23.872Z,99890.47
2022-09-03T05:42:13.620Z,99886.28
2022-09-03T05:43:01.877Z,99893.78
2022-09-03T05:43:59.753Z,99891.31
2022-09-03T05:44:46.980Z,99894.66
2022-09-03T05:45:37.336Z,99894.22
2022-09-03T05:46:32.465Z,99889.22
2022-09-03T05:47:19.660Z,99896.97
2022-09-03T05:48:06.400Z,99897.59
2022-09-03T05:48:53.091Z,99902.59
2022-09-03T05:49:40.006Z,99899.25
2022-09-03T05:50:27.860Z,99899.88
2022-09-03T05:51:16.664Z,99899.03
2022-09-03T05:52:03.510Z,99906.56
2022-09-03T05:52:50.240Z,99900.50
2022-09-03T05:53:38.730Z,99903.44
2022-09-03T05:54:25.494Z,99905.91
2022-09-03T05:55:13.566Z,99901.97
2022-09-03T05:56:04.433Z,99899.44
2022-09-03T05:56:51.190Z,99902.97
2022-09-03T05:57:38.262Z,99896.28
2022-09-03T05:58:25.532Z,99898.38
2022-09-03T05:59:13.933Z,99897.53
2022-09-03T06:00:00.680Z,99897.53
2022-09-03T06:00:47.380Z,99891.44
2022-09-03T06:01:36.192Z,99899.12
2022-09-03T06:02:23.089Z,99890.94
2022-09-03T06:03:09.970Z,99896.38
2022-09-03T06:03:59.018Z,99903.91
2022-09-03T06:04:46.201Z,99890.91
2022-09-03T06:05:32.992Z,99894.03
2022-09-03T06:06:24.907Z,99898.84
2022-09-03T06:07:11.731Z,99893.16
2022-09-03T06:07:58.440Z,99890.88
2022-09-03T06:08:45.110Z,99902.19
2022-09-03T06:09:31.800Z,99885.19
2022-09-03T06:10:22.336Z,99888.91
2022-09-03T06:11:11.960Z,99883.22
2022-09-03T06:11:58.693Z,99883.84
2022-09-03T06:12:52.078Z,99880.03
2022-09-03T06:13:38.830Z,99879.56
2022-09-03T06:14:25.654Z,99873.44
2022-09-03T06:15:12.729Z,99874.62
2022-09-03T06:16:01.170Z,99879.78
2022-09-03T06:16:49.895Z,99870.41
2022-09-03T06:17:38.715Z,99872.72
2022-09-03T06:18:27.080Z,99871.50
2022-09-03T06:19:14.450Z,99872.78
2022-09-03T06:20:01.200Z,99876.03
2022-09-03T06:20:57.571Z,99874.69
2022-09-03T06:21:45.393Z,99875.09
2022-09-03T06:22:32.331Z,99878.78
2022-09-03T06:23:19.081Z,99881.03
2022-09-03T06:24:06.140Z,99886.63
2022-09-03T06:24:52.851Z,99882.13
2022-09-03T06:25:39.584Z,99883.16
2022-09-03T06:26:29.768Z,99880.56
2022-09-03T06:27:16.629Z,99893.03
2022-09-03T06:28:03.781Z,99892.06
2022-09-03T06:28:50.474Z,99882.09
2022-09-03T06:29:39.070Z,99884.31
2022-09-03T06:30:26.887Z,99890.97
2022-09-03T06:31:15.851Z,99889.41
2022-09-03T06:32:04.737Z,99886.31
2022-09-03T06:32:52.370Z,99883.44
2022-09-03T06:33:40.530Z,99889.59
2022-09-03T06:34:27.378Z,99882.50
2022-09-03T06:35:14.121Z,99884.13
2022-09-03T06:36:03.920Z,99880.59
2022-09-03T06:36:54.540Z,99879.75
2022-09-03T06:37:42.564Z,99869.66
2022-09-03T06:38:35.911Z,99878.28
2022-09-03T06:39:22.716Z,99872.59
2022-09-03T06:40:13.480Z,99869.44
2022-09-03T06:41:04.340Z,99874.19
2022-09-03T06:41:52.096Z,99867.62
2022-09-03T06:42:40.400Z,99863.97
2022-09-03T06:43:34.931Z,99866.59
2022-09-03T06:44:21.699Z,99867.91
2022-09-03T06:45:12.093Z,99872.69
2022-09-03T06:46:01.294Z,99870.56
2022-09-03T06:46:48.730Z,99869.50
2022-09-03T06:47:35.913Z,99878.66
2022-09-03T06:48:22.663Z,99868.91
2022-09-03T06:49:10.103Z,99877.56
2022-09-03T06:49:56.901Z,99872.84
2022-09-03T06:50:43.692Z,99874.50
2022-09-03T06:51:32.230Z,99874.25
2022-09-03T06:52:18.941Z,99871.06
2022-09-03T06:53:06.310Z,99873.94
2022-09-03T06:53:54.811Z,99875.00
2022-09-03T06:54:41.522Z,99872.03
2022-09-03T06:55:28.191Z,99877.97
2022-09-03T06:56:17.361Z,99877.72
2022-09-03T06:57:04.570Z,99875.59
2022-09-03T06:57:57.071Z,99872.97
2022-09-03T06:58:47.586Z,99876.38
2022-09-03T06:59:34.321Z,99874.00
2022-09-03T07:00:21.931Z,99882.34
2022-09-03T07:01:11.889Z,99884.94
2022-09-03T07:02:00.961Z,99880.41
2022-09-03T07:02:48.970Z,99880.75
2022-09-03T07:03:36.994Z,99883.25
2022-09-03T07:04:25.092Z,99882.88
2022-09-03T07:05:11.940Z,99877.25
2022-09-03T07:06:05.421Z,99879.50
2022-09-03T07:06:52.131Z,99884.84
2022-09-03T07:07:38.812Z,99883.03
2022-09-03T07:08:26.819Z,99884.53
2022-09-03T07:09:15.091Z,99884.91
2022-09-03T07:10:02.041Z,99886.34
2022-09-03T07:10:49.186Z,99869.66
2022-09-03T07:11:37.111Z,99876.31
2022-09-03T07:12:24.011Z,99873.81
2022-09-03T07:13:10.871Z,99875.72
2022-09-03T07:13:58.940Z,99884.19
2022-09-03T07:14:47.431Z,99881.44
2022-09-03T07:15:37.880Z,99876.53
2022-09-03T07:16:27.942Z,99879.63
2022-09-03T07:17:14.701Z,99880.22
2022-09-03T07:18:01.460Z,99871.78
2022-09-03T07:18:48.891Z,99879.72
2022-09-03T07:19:35.650Z,99878.31
2022-09-03T07:20:22.606Z,99873.06
2022-09-03T07:21:14.812Z,99880.56
2022-09-03T07:22:01.840Z,99884.13
2022-09-03T07:22:48.841Z,99881.75
2022-09-03T07:23:37.219Z,99888.13
2022-09-03T07:24:24.510Z,99885.91
2022-09-03T07:25:12.750Z,99887.78
2022-09-03T07:26:05.051Z,99877.16
2022-09-03T07:26:52.378Z,99875.59
2022-09-03T07:27:39.261Z,99889.91
2022-09-03T07:28:26.831Z,99891.56
2022-09-03T07:29:16.168Z,99883.91
2022-09-03T07:30:04.030Z,99877.59
2022-09-03T07:30:54.961Z,99877.59
2022-09-03T07:31:43.500Z,99871.63
2022-09-03T07:32:30.382Z,99879.00
2022-09-03T07:33:18.653Z,99877.34
2022-09-03T07:34:11.772Z,99876.84
2022-09-03T07:34:58.471Z,99876.59
2022-09-03T07:35:46.410Z,99873.88
2022-09-03T07:36:44.319Z,99878.87
2022-09-03T07:37:31.170Z,99882.28
2022-09-03T07:38:20.036Z,99879.28
2022-09-03T07:39:07.310Z,99876.56
2022-09-03T07:39:54.503Z,99875.47
2022-09-03T07:40:41.350Z,99883.50
2022-09-03T07:41:29.082Z,99878.03
2022-09-03T07:42:15.931Z,99877.38
2022-09-03T07:43:04.425Z,99876.12
2022-09-03T07:43:51.703Z,99878.37
2022-09-03T07:44:38.851Z,99882.53
2022-09-03T07:45:25.581Z,99879.87
2022-09-03T07:46:15.474Z,99882.13
2022-09-03T07:47:03.027Z,99882.34
2022-09-03T07:47:50.670Z,99881.59
2022-09-03T07:48:38.219Z,99875.12
2022-09-03T07:49:25.180Z,99879.44
2022-09-03T07:50:11.991Z,99877.38
2022-09-03T07:51:01.747Z,99878.19
2022-09-03T07:51:50.968Z,99876.56
2022-09-03T07:52:38.331Z,99883.28
2022-09-03T07:53:25.055Z,99878.44
2022-09-03T07:54:11.944Z,99884.75
2022-09-03T07:54:59.851Z,99884.69
2022-09-03T07:55:48.135Z,99885.28
2022-09-03T07:56:36.108Z,99884.19
2022-09-03T07:57:22.908Z,99882.28
2022-09-03T07:58:10.981Z,99890.19
2022-09-03T07:58:59.219Z,99884.47
2022-09-03T07:59:45.931Z,99882.34
2022-09-03T08:00:34.219Z,99889.59
2022-09-03T08:01:22.223Z,99883.34
2022-09-03T08:02:09.011Z,99895.22
2022-09-03T08:02:56.729Z,99887.31
2022-09-03T08:03:45.166Z,99887.72
2022-09-03T08:04:33.949Z,99879.97
2022-09-03T08:05:21.500Z,99889.63
2022-09-03T08:06:08.550Z,99891.78
2022-09-03T08:06:56.934Z,99887.72
2022-09-03T08:07:43.690Z,99888.34
2022-09-03T08:08:35.536Z,99889.25
2022-09-03T08:09:22.501Z,99893.91
2022-09-03T08:10:09.550Z,99895.63
2022-09-03T08:10:57.608Z,99894.22
2022-09-03T08:11:44.350Z,99899.41
2022-09-03T08:12:31.881Z,99894.47
2022-09-03T08:13:18.712Z,99897.19
2022-09-03T08:14:08.050Z,99889.44
2022-09-03T08:14:54.961Z,99892.75
2022-09-03T08:15:43.068Z,99897.50
2022-09-03T08:16:31.578Z,99884.66
2022-09-03T08:17:18.433Z,99889.38
2022-09-03T08:18:06.002Z,99892.66
2022-09-03T08:18:52.980Z,99886.03
2022-09-03T08:19:41.162Z,99887.53
2022-09-03T08:20:28.370Z,99882.62
2022-09-03T08:21:19.289Z,99886.47
2022-09-03T08:22:06.059Z,99888.88
2022-09-03T08:22:52.731Z,99883.97
2022-09-03T08:23:41.220Z,99874.38
2022-09-03T08:24:27.921Z,99881.84
2022-09-03T08:25:14.840Z,99881.91
2022-09-03T08:26:02.212Z,99883.06
2022-09-03T08:26:52.060Z,99889.47
2022-09-03T08:27:39.300Z,99890.38
2022-09-03T08:28:26.571Z,99895.09
2022-09-03T08:29:13.441Z,99890.66
2022-09-03T08:30:00.242Z,99891.50
2022-09-03T08:30:46.920Z,99892.34
2022-09-03T08:31:35.068Z,99900.91
2022-09-03T08:32:23.051Z,99892.91
2022-09-03T08:33:09.762Z,99889.84
2022-09-03T08:33:58.882Z,99891.44
2022-09-03T08:34:46.980Z,99888.13
2022-09-03T08:35:34.882Z,99888.97
2022-09-03T08:36:32.530Z,99890.38
2022-09-03T08:37:19.250Z,99896.28
2022-09-03T08:38:10.873Z,99894.69
2022-09-03T08:38:59.592Z,99895.78
2022-09-03T08:39:46.422Z,99896.28
2022-09-03T08:40:35.942Z,99899.81
2022-09-03T08:42:12.140Z,99893.94
2022-09-03T08:43:16.820Z,99885.44
2022-09-03T08:44:19.570Z,99891.06
2022-09-03T08:45:10.615Z,99896.59
2022-09-03T08:46:00.100Z,99886.22
2022-09-03T08:47:05.198Z,99890.69
2022-09-03T08:48:09.524Z,99890.41
2022-09-03T08:48:57.402Z,99884.94
2022-09-03T08:49:50.121Z,99881.66
2022-09-03T08:50:42.341Z,99877.81
2022-09-03T08:51:29.172Z,99881.41
2022-09-03T08:52:26.258Z,99875.91
2022-09-03T08:53:12.872Z,99877.56
2022-09-03T08:54:00.190Z,99880.34
2022-09-03T08:54:47.591Z,99876.50
2022-09-03T08:55:45.041Z,99875.94
2022-09-03T08:56:33.169Z,99873.25
2022-09-03T08:57:20.924Z,99867.28
2022-09-03T08:58:14.362Z,99868.41
2022-09-03T08:59:01.670Z,99865.69
2022-09-03T08:59:53.781Z,99867.91
2022-09-03T09:01:02.201Z,99867.69
2022-09-03T09:02:21.809Z,99864.69
2022-09-03T09:03:33.882Z,99861.38
2022-09-03T09:04:37.914Z,99873.53
2022-09-03T09:05:39.951Z,99875.19
2022-09-03T09:06:39.531Z,99871.41
2022-09-03T09:07:50.041Z,99873.03
2022-09-03T09:08:56.596Z,99867.78
2022-09-03T09:09:49.081Z,99863.66
2022-09-03T09:10:45.655Z,99870.03
2022-09-03T09:11:50.883Z,99872.56
2022-09-03T09:13:05.728Z,99867.38
2022-09-03T09:14:00.360Z,99864.66
2022-09-03T09:15:14.874Z,99860.81
2022-09-03T09:16:12.060Z,99868.03
2022-09-03T09:17:02.279Z,99866.75
2022-09-03T09:18:29.039Z,99865.44
2022-09-03T09:19:37.026Z,99870.22
2022-09-03T09:20:53.260Z,99862.16
2022-09-03T09:21:52.522Z,99856.66
2022-09-03T09:22:47.334Z,99859.72
2022-09-03T09:23:54.620Z,99858.38
2022-09-03T09:24:46.431Z,99854.28
2022-09-03T09:25:39.882Z,99857.59
2022-09-03T09:26:26.600Z,99863.13
2022-09-03T09:27:19.330Z,99856.19
2022-09-03T09:28:25.265Z,99860.56
2022-09-03T09:29:12.692Z,99857.25
2022-09-03T09:30:02.221Z,99855.94
2022-09-03T09:30:51.813Z,99858.47
2022-09-03T09:31:39.691Z,99857.94
2022-09-03T09:32:26.481Z,99864.53
2022-09-03T09:33:14.781Z,99858.72
2022-09-03T09:34:04.825Z,99858.16
2022-09-03T09:34:52.709Z,99851.00
2022-09-03T09:35:42.560Z,99865.31
2022-09-03T09:36:29.272Z,99852.69
2022-09-03T09:37:17.327Z,99851.88
2022-09-03T09:38:04.161Z,99858.25
2022-09-03T09:38:50.981Z,99848.63
2022-09-03T09:39:38.198Z,99850.06
2022-09-03T09:40:31.350Z,99846.19
2022-09-03T09:41:25.114Z,99844.28
2022-09-03T09:42:14.191Z,99848.41
2022-09-03T09:43:16.722Z,99847.87
2022-09-03T09:44:05.741Z,99845.94
2022-09-03T09:44:52.900Z,99845.91
2022-09-03T09:45:41.451Z,99847.84
2022-09-03T09:46:39.524Z,99845.09
2022-09-03T09:47:29.890Z,99848.97
2022-09-03T09:48:34.219Z,99851.72
2022-09-03T09:49:32.109Z,99845.66
2022-09-03T09:50:26.278Z,99846.19
2022-09-03T09:51:18.691Z,99843.19
2022-09-03T09:52:09.271Z,99845.66
2022-09-03T09:53:14.568Z,99854.22
2022-09-03T09:54:20.241Z,99842.34
2022-09-03T09:55:15.771Z,99860.53
2022-09-03T09:56:03.212Z,99856.13
2022-09-03T09:57:00.010Z,99856.41
2022-09-03T09:57:46.938Z,99852.00
2022-09-03T09:58:34.974Z,99857.53
2022-09-03T09:59:21.732Z,99852.25
2022-09-03T10:00:12.905Z,99851.69
2022-09-03T10:01:03.691Z,99849.22
2022-09-03T10:01:50.508Z,99847.03
2022-09-03T10:02:42.534Z,99843.72
2022-09-03T10:03:33.286Z,99849.25
2022-09-03T10:04:25.296Z,99842.88
2022-09-03T10:05:22.348Z,99849.25
2022-09-03T10:06:28.671Z,99851.19